createdAt,value
2018-11-29T00:00:38.980Z,83.50
2018-11-29T00:03:10.957Z,82.40
2018-11-29T00:05:46.418Z,82.10
2018-11-29T00:08:21.829Z,81.90
2018-11-29T00:10:51.300Z,83.10
2018-11-29T00:13:21.460Z,83.00
2018-11-29T00:15:50.741Z,81.40
2018-11-29T00:18:19.985Z,81.00
2018-11-29T00:20:49.433Z,81.10
2018-11-29T00:23:19.803Z,81.50
2018-11-29T00:25:49.098Z,81.40
2018-11-29T00:28:18.403Z,80.70
2018-11-29T00:30:47.658Z,81.90
2018-11-29T00:33:17.011Z,81.60
2018-11-29T00:35:46.523Z,79.70
2018-11-29T00:38:15.843Z,78.40
2018-11-29T00:40:45.206Z,76.70
2018-11-29T00:43:14.646Z,75.20
2018-11-29T00:45:44.140Z,73.50
2018-11-29T00:48:13.463Z,73.50
2018-11-29T00:50:42.862Z,73.40
2018-11-29T00:53:12.210Z,74.30
2018-11-29T00:55:41.572Z,73.50
2018-11-29T00:58:10.987Z,74.00
2018-11-29T01:00:40.421Z,74.50
2018-11-29T01:03:09.883Z,75.00
2018-11-29T01:05:39.280Z,74.80
2018-11-29T01:08:08.683Z,75.80
2018-11-29T01:10:38.033Z,74.10
2018-11-29T01:13:07.530Z,74.00
2018-11-29T01:15:36.901Z,75.00
2018-11-29T01:18:06.505Z,76.10
2018-11-29T01:20:35.900Z,76.80
2018-11-29T01:23:05.406Z,77.30
2018-11-29T01:25:34.840Z,79.30
2018-11-29T01:28:04.267Z,81.10
2018-11-29T01:30:33.578Z,82.10
2018-11-29T01:33:03.991Z,82.00
2018-11-29T01:35:34.391Z,81.50
2018-11-29T01:38:03.771Z,81.00
2018-11-29T01:40:33.093Z,81.70
2018-11-29T01:43:07.645Z,81.50
2018-11-29T01:45:39.919Z,82.60
2018-11-29T01:48:13.276Z,83.10
2018-11-29T01:50:49.436Z,82.60
2018-11-29T01:53:25.818Z,83.10
2018-11-29T01:55:59.426Z,82.80
2018-11-29T01:58:28.956Z,82.80
2018-11-29T02:00:58.371Z,82.90
2018-11-29T02:03:27.751Z,83.20
2018-11-29T02:05:57.169Z,82.90
2018-11-29T02:08:26.479Z,83.10
2018-11-29T02:10:55.834Z,82.60
2018-11-29T02:13:25.097Z,82.10
2018-11-29T02:15:54.487Z,82.30
2018-11-29T02:18:24.034Z,80.90
2018-11-29T02:20:53.469Z,79.80
2018-11-29T02:23:22.788Z,78.10
2018-11-29T02:25:52.186Z,77.60
2018-11-29T02:28:21.617Z,78.00
2018-11-29T02:30:50.890Z,77.80
2018-11-29T02:36:27.104Z,76.30
2018-11-29T02:38:56.836Z,76.20
2018-11-29T02:41:26.610Z,76.50
2018-11-29T02:43:56.053Z,77.00
2018-11-29T02:46:25.511Z,78.00
2018-11-29T02:48:54.927Z,78.10
2018-11-29T02:51:24.389Z,79.60
2018-11-29T02:53:53.944Z,79.10
2018-11-29T02:56:23.409Z,81.10
2018-11-29T02:58:52.804Z,82.20
2018-11-29T03:01:22.298Z,83.40
2018-11-29T03:03:52.006Z,84.20
2018-11-29T03:06:21.406Z,84.80
2018-11-29T03:08:50.835Z,84.30
2018-11-29T03:11:20.333Z,83.50
2018-11-29T03:13:49.816Z,82.20
2018-11-29T03:16:19.245Z,82.00
2018-11-29T03:18:48.690Z,81.70
2018-11-29T03:21:18.154Z,82.50
2018-11-29T03:23:47.600Z,82.60
2018-11-29T03:26:17.055Z,81.80
2018-11-29T03:28:46.568Z,80.90
2018-11-29T03:31:16.010Z,79.60
2018-11-29T03:33:45.482Z,79.10
2018-11-29T03:36:14.909Z,79.50
2018-11-29T03:38:44.289Z,79.80
2018-11-29T03:41:13.660Z,80.60
2018-11-29T03:43:43.102Z,80.30
2018-11-29T03:46:12.636Z,81.00
2018-11-29T03:48:42.184Z,81.60
2018-11-29T03:51:11.675Z,82.60
2018-11-29T03:53:41.163Z,81.80
2018-11-29T03:56:10.642Z,80.80
2018-11-29T03:58:40.197Z,78.60
2018-11-29T04:01:09.723Z,78.40
2018-11-29T04:03:39.281Z,79.10
2018-11-29T04:06:08.813Z,79.00
2018-11-29T04:08:38.342Z,78.40
2018-11-29T04:11:08.904Z,79.30
2018-11-29T04:13:37.394Z,80.10
2018-11-29T04:16:06.911Z,80.90
2018-11-29T04:18:36.499Z,81.30
2018-11-29T04:21:06.079Z,81.00
2018-11-29T04:23:35.593Z,80.60
2018-11-29T04:26:05.686Z,80.50
2018-11-29T04:28:35.234Z,79.40
2018-11-29T04:31:05.153Z,79.10
2018-11-29T04:33:34.541Z,78.60
2018-11-29T04:36:04.627Z,77.00
2018-11-29T04:38:34.142Z,76.30
2018-11-29T04:41:03.573Z,75.90
2018-11-29T04:43:32.972Z,75.90
2018-11-29T04:47:15.260Z,76.50
2018-11-29T04:49:44.749Z,76.50
2018-11-29T04:52:14.196Z,76.80
2018-11-29T04:54:43.721Z,76.90
2018-11-29T04:57:13.302Z,77.50
2018-11-29T04:59:42.668Z,78.60
2018-11-29T05:02:12.054Z,78.10
2018-11-29T05:04:41.389Z,78.10
2018-11-29T05:07:10.733Z,80.40
2018-11-29T05:09:40.174Z,82.10
2018-11-29T05:12:10.109Z,83.60
2018-11-29T05:14:39.741Z,84.50
2018-11-29T05:17:09.149Z,84.40
2018-11-29T05:19:38.627Z,84.00
2018-11-29T05:22:08.133Z,81.70
2018-11-29T05:24:37.556Z,81.90
2018-11-29T05:27:07.650Z,83.40
2018-11-29T05:29:37.041Z,84.10
2018-11-29T05:32:06.951Z,84.60
2018-11-29T05:34:36.447Z,83.40
2018-11-29T05:37:06.686Z,81.30
2018-11-29T05:39:36.156Z,81.30
2018-11-29T05:42:05.621Z,83.70
2018-11-29T05:44:35.041Z,84.20
2018-11-29T05:47:05.217Z,85.00
2018-11-29T05:49:34.819Z,86.10
2018-11-29T05:52:04.250Z,86.60
2018-11-29T05:54:33.681Z,85.70
2018-11-29T05:57:03.153Z,83.90
2018-11-29T05:59:32.578Z,81.90
2018-11-29T06:02:02.311Z,80.50
2018-11-29T06:04:31.968Z,81.50
2018-11-29T06:07:01.469Z,83.20
2018-11-29T06:09:30.856Z,83.60
2018-11-29T06:12:00.411Z,85.30
2018-11-29T06:14:30.024Z,86.20
2018-11-29T06:16:59.463Z,88.10
2018-11-29T06:19:28.946Z,88.20
2018-11-29T06:21:58.379Z,89.20
2018-11-29T06:24:28.041Z,89.10
2018-11-29T06:26:57.564Z,87.20
2018-11-29T06:29:27.006Z,85.80
2018-11-29T06:31:57.531Z,84.20
2018-11-29T06:34:26.923Z,83.50
2018-11-29T06:36:56.311Z,83.00
2018-11-29T06:39:25.754Z,82.50
2018-11-29T06:41:55.333Z,81.30
2018-11-29T06:44:25.014Z,80.00
2018-11-29T06:46:54.921Z,79.10
2018-11-29T06:49:24.314Z,77.30
2018-11-29T06:51:53.786Z,77.10
2018-11-29T06:54:23.226Z,75.30
2018-11-29T06:56:52.764Z,73.00
2018-11-29T06:59:23.704Z,72.70
2018-11-29T07:01:53.530Z,70.90
2018-11-29T07:04:23.554Z,70.00
2018-11-29T07:06:53.011Z,69.00
2018-11-29T07:09:22.599Z,66.90
2018-11-29T07:11:52.019Z,66.60
2018-11-29T07:14:21.490Z,64.20
2018-11-29T07:16:50.921Z,64.80
2018-11-29T07:19:20.394Z,63.00
2018-11-29T07:21:55.501Z,62.80
2018-11-29T07:24:25.579Z,62.80
2018-11-29T07:26:55.142Z,61.80
2018-11-29T07:29:24.616Z,62.00
2018-11-29T07:31:54.121Z,59.80
2018-11-29T07:34:32.906Z,59.30
2018-11-29T07:37:04.061Z,58.80
2018-11-29T07:39:33.510Z,57.30
2018-11-29T07:42:03.106Z,55.10
2018-11-29T07:44:34.143Z,55.30
2018-11-29T07:47:03.741Z,55.40
2018-11-29T07:49:33.213Z,54.60
2018-11-29T07:52:02.751Z,53.40
2018-11-29T07:54:32.241Z,51.60
2018-11-29T07:57:01.723Z,50.80
2018-11-29T07:59:31.186Z,50.10
2018-11-29T08:02:00.700Z,49.40
2018-11-29T08:04:30.166Z,49.50
2018-11-29T08:06:59.716Z,50.30
2018-11-29T08:09:29.343Z,48.90
2018-11-29T08:11:58.851Z,49.60
2018-11-29T08:14:28.478Z,47.10
2018-11-29T08:16:57.964Z,46.20
2018-11-29T08:19:27.510Z,46.10
2018-11-29T08:21:57.096Z,45.40
2018-11-29T08:24:26.561Z,43.20
2018-11-29T08:26:56.016Z,43.70
2018-11-29T08:29:25.555Z,44.10
2018-11-29T08:31:55.038Z,43.40
2018-11-29T08:34:24.482Z,42.50
2018-11-29T08:36:54.056Z,42.30
2018-11-29T08:39:23.661Z,42.80
2018-11-29T08:41:53.263Z,41.40
2018-11-29T08:44:22.801Z,41.50
2018-11-29T08:46:52.321Z,41.10
2018-11-29T08:49:22.004Z,43.10
2018-11-29T08:51:51.751Z,41.80
2018-11-29T08:54:21.878Z,42.10
2018-11-29T08:56:51.433Z,42.50
2018-11-29T08:59:21.286Z,41.30
2018-11-29T09:01:50.811Z,41.40
2018-11-29T09:04:20.271Z,41.80
2018-11-29T09:06:49.729Z,40.00
2018-11-29T09:09:19.246Z,39.70
2018-11-29T09:11:48.700Z,39.60
2018-11-29T09:14:18.218Z,38.80
2018-11-29T09:16:47.839Z,39.30
2018-11-29T09:19:17.331Z,39.80
2018-11-29T09:21:46.855Z,39.00
2018-11-29T09:24:16.388Z,38.60
2018-11-29T09:26:45.919Z,37.30
2018-11-29T09:29:15.466Z,37.20
2018-11-29T09:31:44.943Z,37.30
2018-11-29T09:34:14.449Z,36.80
2018-11-29T09:36:43.919Z,35.20
2018-11-29T09:39:13.416Z,35.50
2018-11-29T09:41:42.860Z,35.10
2018-11-29T09:44:12.393Z,36.00
2018-11-29T09:46:41.959Z,36.60
2018-11-29T09:49:11.475Z,34.80
2018-11-29T09:51:41.062Z,34.70
2018-11-29T09:54:10.631Z,33.90
2018-11-29T09:56:40.161Z,33.80
2018-11-29T09:59:09.678Z,34.00
2018-11-29T10:01:39.228Z,33.40
2018-11-29T10:04:08.836Z,35.00
2018-11-29T10:06:38.834Z,33.30
2018-11-29T10:09:10.604Z,32.80
2018-11-29T10:11:40.126Z,32.90
2018-11-29T10:14:09.716Z,32.50
2018-11-29T10:16:39.259Z,33.50
2018-11-29T10:19:08.831Z,32.10
2018-11-29T10:21:38.277Z,32.10
2018-11-29T10:24:07.727Z,30.40
2018-11-29T10:26:37.094Z,30.10
2018-11-29T10:29:06.637Z,30.80
2018-11-29T10:31:35.996Z,30.50
2018-11-29T10:34:05.564Z,31.10
2018-11-29T10:36:35.047Z,29.90
2018-11-29T10:39:06.846Z,30.40
2018-11-29T10:41:36.425Z,31.40
2018-11-29T10:44:06.194Z,32.60
2018-11-29T10:46:35.909Z,31.10
2018-11-29T10:49:05.647Z,30.80
2018-11-29T10:51:35.052Z,30.10
2018-11-29T10:54:04.711Z,30.60
2018-11-29T10:56:34.097Z,30.80
2018-11-29T10:59:03.544Z,29.80
2018-11-29T11:01:37.480Z,30.90
2018-11-29T11:04:07.008Z,30.20
2018-11-29T11:06:36.536Z,30.50
2018-11-29T11:09:09.826Z,31.00
2018-11-29T11:11:39.262Z,31.80
2018-11-29T11:14:08.684Z,30.30
2018-11-29T11:16:38.391Z,31.00
2018-11-29T11:19:08.204Z,30.10
2018-11-29T11:21:37.704Z,31.10
2018-11-29T11:24:07.197Z,29.70
2018-11-29T11:26:36.662Z,30.00
2018-11-29T11:29:06.280Z,31.30
2018-11-29T11:31:35.816Z,29.80
2018-11-29T11:34:05.839Z,30.00
2018-11-29T11:36:35.369Z,29.30
2018-11-29T11:39:07.190Z,29.70
2018-11-29T11:41:36.764Z,30.60
2018-11-29T11:44:06.300Z,30.40
2018-11-29T11:46:35.782Z,29.80
2018-11-29T11:49:05.657Z,30.00
2018-11-29T11:51:35.129Z,29.70
2018-11-29T11:54:04.761Z,30.40
2018-11-29T11:56:34.277Z,30.80
2018-11-29T11:59:03.759Z,30.80
2018-11-29T12:01:33.261Z,31.20
2018-11-29T12:04:02.757Z,31.50
2018-11-29T12:06:32.229Z,32.10
2018-11-29T12:09:01.686Z,30.80
2018-11-29T12:11:31.305Z,31.50
2018-11-29T12:14:00.842Z,30.70
2018-11-29T12:16:30.342Z,30.10
2018-11-29T12:19:02.420Z,29.60
2018-11-29T12:21:29.504Z,29.40
2018-11-29T12:23:59.061Z,30.00
2018-11-29T12:26:28.494Z,29.30
2018-11-29T12:28:58.015Z,30.00
2018-11-29T12:31:27.526Z,29.50
2018-11-29T12:33:56.936Z,29.30
2018-11-29T12:36:26.338Z,29.20
2018-11-29T12:38:55.716Z,29.50
2018-11-29T12:41:25.085Z,29.00
2018-11-29T12:43:54.481Z,29.00
2018-11-29T12:46:23.859Z,29.50
2018-11-29T12:48:53.447Z,29.10
2018-11-29T12:51:22.810Z,30.40
2018-11-29T12:53:52.270Z,30.30
2018-11-29T12:56:21.720Z,30.70
2018-11-29T12:58:51.138Z,30.40
2018-11-29T13:01:20.582Z,31.00
2018-11-29T13:03:50.149Z,31.40
2018-11-29T13:06:19.622Z,31.20
2018-11-29T13:08:48.970Z,31.60
2018-11-29T13:11:18.462Z,31.30
2018-11-29T13:13:47.967Z,30.70
2018-11-29T13:16:17.459Z,30.00
2018-11-29T13:18:46.854Z,30.50
2018-11-29T13:21:16.309Z,31.60
2018-11-29T13:23:45.735Z,31.70
2018-11-29T13:26:16.207Z,30.80
2018-11-29T13:28:45.676Z,31.20
2018-11-29T13:31:15.152Z,31.70
2018-11-29T13:33:44.749Z,33.10
2018-11-29T13:36:14.227Z,33.10
2018-11-29T13:38:43.708Z,31.80
2018-11-29T13:41:13.170Z,31.80
2018-11-29T13:43:42.630Z,32.00
2018-11-29T13:46:12.336Z,30.70
2018-11-29T13:48:41.686Z,31.30
2018-11-29T13:51:11.102Z,31.00
2018-11-29T13:53:40.557Z,31.90
2018-11-29T13:56:09.995Z,32.20
2018-11-29T13:58:40.409Z,33.90
2018-11-29T14:01:09.882Z,34.60
2018-11-29T14:03:39.269Z,35.30
2018-11-29T14:06:08.759Z,36.10
2018-11-29T14:08:38.641Z,37.10
2018-11-29T14:11:08.064Z,38.10
2018-11-29T14:13:37.494Z,38.40
2018-11-29T14:16:06.924Z,39.10
2018-11-29T14:18:36.306Z,40.10
2018-11-29T14:21:05.939Z,41.00
2018-11-29T14:23:35.364Z,42.20
2018-11-29T14:26:06.013Z,42.80
2018-11-29T14:28:35.406Z,43.90
2018-11-29T14:31:05.332Z,44.90
2018-11-29T14:33:35.421Z,46.10
2018-11-29T14:36:04.969Z,46.40
2018-11-29T14:38:34.467Z,46.50
2018-11-29T14:41:03.904Z,47.60
2018-11-29T14:43:33.321Z,47.60
2018-11-29T14:46:02.733Z,48.00
2018-11-29T14:48:33.082Z,48.60
2018-11-29T14:51:02.731Z,49.50
2018-11-29T14:53:32.143Z,49.50
2018-11-29T14:56:01.580Z,49.30
2018-11-29T14:58:31.139Z,48.60
2018-11-29T15:01:00.849Z,49.40
2018-11-29T15:03:30.302Z,49.30
2018-11-29T15:06:00.398Z,50.50
2018-11-29T15:08:30.863Z,50.80
2018-11-29T15:11:00.477Z,50.50
2018-11-29T15:13:29.941Z,50.10
2018-11-29T15:15:59.390Z,50.70
2018-11-29T15:18:28.997Z,50.80
2018-11-29T15:20:58.677Z,52.40
2018-11-29T15:23:28.316Z,51.80
2018-11-29T15:25:57.741Z,52.20
2018-11-29T15:28:27.159Z,51.60
2018-11-29T15:30:56.544Z,51.10
2018-11-29T15:33:26.047Z,51.10
2018-11-29T15:35:55.482Z,50.90
2018-11-29T15:38:24.977Z,51.30
2018-11-29T15:40:54.523Z,51.60
2018-11-29T15:43:24.102Z,51.70
2018-11-29T15:45:53.699Z,52.00
2018-11-29T15:48:23.207Z,52.60
2018-11-29T15:50:52.649Z,53.40
2018-11-29T15:53:22.152Z,54.70
2018-11-29T15:55:51.589Z,54.70
2018-11-29T15:58:21.040Z,55.90
2018-11-29T16:00:50.493Z,56.40
2018-11-29T16:03:20.062Z,56.50
2018-11-29T16:05:49.590Z,57.20
2018-11-29T16:08:19.129Z,57.60
2018-11-29T16:10:48.761Z,57.20
2018-11-29T16:13:18.195Z,57.20
2018-11-29T16:15:47.683Z,58.20
2018-11-29T16:18:17.179Z,59.40
2018-11-29T16:20:46.660Z,59.40
2018-11-29T16:23:16.529Z,59.00
2018-11-29T16:25:46.219Z,58.10
2018-11-29T16:28:15.739Z,57.30
2018-11-29T16:30:53.274Z,56.90
2018-11-29T16:33:27.122Z,56.50
2018-11-29T16:35:57.622Z,57.00
2018-11-29T16:38:27.000Z,57.50
2018-11-29T16:40:56.419Z,58.10
2018-11-29T16:43:25.856Z,58.10
2018-11-29T16:45:55.844Z,58.20
2018-11-29T16:48:25.401Z,57.60
2018-11-29T16:50:54.934Z,58.20
2018-11-29T16:53:24.469Z,60.90
2018-11-29T16:55:53.957Z,62.80
2018-11-29T16:58:27.047Z,63.70
2018-11-29T17:00:56.681Z,64.20
2018-11-29T17:03:26.259Z,64.60
2018-11-29T17:05:56.154Z,64.70
2018-11-29T17:08:26.154Z,63.20
2018-11-29T17:10:56.454Z,61.80
2018-11-29T17:13:26.269Z,60.30
2018-11-29T17:15:55.889Z,59.30
2018-11-29T17:18:25.468Z,58.70
2018-11-29T17:20:55.021Z,58.40
2018-11-29T17:23:24.612Z,59.50
2018-11-29T17:25:54.196Z,59.10
2018-11-29T17:28:24.089Z,59.50
2018-11-29T17:30:53.674Z,59.80
2018-11-29T17:33:23.184Z,59.80
2018-11-29T17:35:52.889Z,59.30
2018-11-29T17:38:22.416Z,59.30
2018-11-29T17:40:51.903Z,59.50
2018-11-29T17:43:21.448Z,64.20
2018-11-29T17:45:51.683Z,69.10
2018-11-29T17:48:21.220Z,70.20
2018-11-29T17:50:50.868Z,72.30
2018-11-29T17:53:20.506Z,73.60
2018-11-29T17:55:50.046Z,71.60
2018-11-29T17:58:19.528Z,68.10
2018-11-29T18:00:51.220Z,67.70
2018-11-29T18:03:22.509Z,66.80
2018-11-29T18:05:52.654Z,65.50
2018-11-29T18:08:23.245Z,65.30
2018-11-29T18:10:57.343Z,67.70
2018-11-29T18:13:32.101Z,72.30
2018-11-29T18:16:01.707Z,74.80
2018-11-29T18:18:31.307Z,76.40
2018-11-29T18:21:00.826Z,78.00
2018-11-29T18:23:31.101Z,79.10
2018-11-29T18:26:01.140Z,80.30
2018-11-29T18:28:30.534Z,80.50
2018-11-29T18:31:00.191Z,80.30
2018-11-29T18:33:30.491Z,80.80
2018-11-29T18:36:00.048Z,79.90
2018-11-29T18:38:29.538Z,75.40
2018-11-29T18:40:59.590Z,72.50
2018-11-29T18:43:29.091Z,70.80
2018-11-29T18:45:58.738Z,71.30
2018-11-29T18:48:28.883Z,72.40
2018-11-29T18:50:58.983Z,74.20
2018-11-29T18:53:28.553Z,75.80
2018-11-29T18:56:00.609Z,76.50
2018-11-29T18:58:28.116Z,76.00
2018-11-29T19:00:57.776Z,79.50
2018-11-29T19:03:27.333Z,82.00
2018-11-29T19:05:56.857Z,83.20
2018-11-29T19:08:27.248Z,85.00
2018-11-29T19:10:56.896Z,87.10
2018-11-29T19:13:26.521Z,87.60
2018-11-29T19:15:56.148Z,88.10
2018-11-29T19:18:27.021Z,87.50
2018-11-29T19:20:56.773Z,86.70
2018-11-29T19:23:26.709Z,87.20
2018-11-29T19:25:57.725Z,87.20
2018-11-29T19:28:27.655Z,85.80
2018-11-29T19:30:57.193Z,86.70
2018-11-29T19:33:28.081Z,86.30
2018-11-29T19:35:58.893Z,87.10
2018-11-29T19:38:28.841Z,87.60
2018-11-29T19:40:59.935Z,87.00
2018-11-29T19:43:29.613Z,86.90
2018-11-29T19:45:59.519Z,87.90
2018-11-29T19:48:29.113Z,85.30
2018-11-29T19:51:00.552Z,83.50
2018-11-29T19:53:32.912Z,82.20
2018-11-29T19:56:05.489Z,80.80
2018-11-29T19:58:36.763Z,80.80
2018-11-29T20:01:08.419Z,82.20
2018-11-29T20:03:39.115Z,83.60
2018-11-29T20:06:10.324Z,84.80
2018-11-29T20:08:40.109Z,85.70
2018-11-29T20:11:10.651Z,87.90
2018-11-29T20:13:40.128Z,89.80
2018-11-29T20:16:09.603Z,90.10
2018-11-29T20:18:39.160Z,91.00
2018-11-29T20:21:08.765Z,91.10
2018-11-29T20:23:38.313Z,92.60
2018-11-29T20:26:07.908Z,93.10
2018-11-29T20:28:38.422Z,93.20
2018-11-29T20:31:08.869Z,94.10
2018-11-29T20:33:38.666Z,95.00
2018-11-29T20:36:08.354Z,95.20
2018-11-29T20:38:37.890Z,96.10
2018-11-29T20:41:09.220Z,95.70
2018-11-29T20:43:39.353Z,96.40
2018-11-29T20:46:10.103Z,96.80
2018-11-29T20:48:39.994Z,93.90
2018-11-29T20:51:09.616Z,92.60
2018-11-29T20:53:40.501Z,91.70
2018-11-29T20:56:13.459Z,90.50
2018-11-29T20:58:42.979Z,91.70
2018-11-29T21:01:12.504Z,92.10
2018-11-29T21:03:42.014Z,90.20
2018-11-29T21:06:13.552Z,90.30
2018-11-29T21:08:43.033Z,90.70
2018-11-29T21:11:12.557Z,91.20
2018-11-29T21:13:42.082Z,92.50
2018-11-29T21:16:11.696Z,93.30
2018-11-29T21:18:41.280Z,94.00
2018-11-29T21:21:11.603Z,94.70
2018-11-29T21:23:41.117Z,95.70
2018-11-29T21:26:10.808Z,94.80
2018-11-29T21:28:40.755Z,94.20
2018-11-29T21:31:10.912Z,95.00
2018-11-29T21:33:40.997Z,95.10
2018-11-29T21:36:10.615Z,95.40
2018-11-29T21:38:40.206Z,96.20
2018-11-29T21:41:09.766Z,96.00
2018-11-29T21:43:39.427Z,96.30
2018-11-29T21:46:08.950Z,96.50
2018-11-29T21:48:38.643Z,96.80
2018-11-29T21:51:08.618Z,97.80
2018-11-29T21:53:38.186Z,97.60
2018-11-29T21:56:07.666Z,97.70
2018-11-29T21:58:37.174Z,97.30
2018-11-29T22:01:06.691Z,97.60
2018-11-29T22:03:37.032Z,97.40
2018-11-29T22:06:07.563Z,98.40
2018-11-29T22:08:37.124Z,99.50
2018-11-29T22:11:06.820Z,99.90
2018-11-29T22:13:36.302Z,99.90
2018-11-29T22:16:06.763Z,98.10
2018-11-29T22:18:36.343Z,96.00
2018-11-29T22:21:07.204Z,95.30
2018-11-29T22:23:39.188Z,95.40
2018-11-29T22:26:13.097Z,94.20
2018-11-29T22:28:44.235Z,94.90
2018-11-29T22:31:13.887Z,95.80
2018-11-29T22:33:43.954Z,95.20
2018-11-29T22:36:15.238Z,94.70
2018-11-29T22:38:45.797Z,96.30
2018-11-29T22:41:15.383Z,96.40
2018-11-29T22:43:45.026Z,97.50
2018-11-29T22:46:15.530Z,98.30
2018-11-29T22:48:45.236Z,98.50
2018-11-29T22:51:14.874Z,99.90
2018-11-29T22:53:45.495Z,99.40
2018-11-29T22:56:15.138Z,99.40
2018-11-29T22:58:44.720Z,98.80
2018-11-29T23:01:19.881Z,99.40
2018-11-29T23:03:49.425Z,99.80
2018-11-29T23:06:19.195Z,99.80
2018-11-29T23:08:48.748Z,99.90
2018-11-29T23:11:18.344Z,99.90
2018-11-29T23:13:47.812Z,99.90
2018-11-29T23:16:17.463Z,99.90
2018-11-29T23:18:47.934Z,99.90
2018-11-29T23:21:17.598Z,99.90
2018-11-29T23:23:47.143Z,99.90
2018-11-29T23:26:17.166Z,99.90
2018-11-29T23:28:46.663Z,99.90
2018-11-29T23:31:16.158Z,99.90
2018-11-29T23:33:45.766Z,99.90
2018-11-29T23:36:15.295Z,99.90
2018-11-29T23:38:44.846Z,99.90
2018-11-29T23:41:14.501Z,99.90
2018-11-29T23:43:44.081Z,99.90
2018-11-29T23:46:13.614Z,99.90
2018-11-29T23:48:43.129Z,99.90
2018-11-29T23:51:12.761Z,99.90
2018-11-29T23:53:42.426Z,99.90
2018-11-29T23:56:11.966Z,99.90
2018-11-29T23:58:50.007Z,99.90
